Time;durP1;ratioP1;P1;durP2;ratioP2;P2;SDS_P1;SDS_P2;PMS_P1;PMS_P2;Temp;Humidity;BMP_temperature;BMP_pressure;BME280_temperature;BME280_humidity;BME280_pressure;Samples;Min_cycle;Max_cycle;Signal;HPM_P1;HPM_P2
2023/07/26 04:36:28;;;;;;;;;;;;;;;;;;;;;
2023/07/26 05:21:57;;;;;;;;;;;;;;;;;;;;;
2023/07/26 05:42:08;;;;;;;12.80;5.70;;;13.70;99.90;;;;;;6011544;23;20037;-85
2023/07/26 05:52:03;;;;;;;;;;;;;;;;;;;;;
2023/07/26 05:54:48;;;;;;;10.73;5.68;;;12.80;99.90;;;;;;6081749;23;20013;-84
2023/07/26 05:57:13;;;;;;;10.38;5.45;;;12.70;99.90;;;;;;6126319;23;20334;-84
2023/07/26 06:03:18;;;;;;;12.48;6.07;;;12.90;99.90;;;;;;6037118;23;20026;-85
2023/07/26 06:05:44;;;;;;;10.77;5.65;;;12.90;99.90;;;;;;6036531;23;20551;-85
2023/07/26 06:08:25;;;;;;;12.50;5.93;;;12.90;99.90;;;;;;6109907;23;20021;-85
2023/07/26 06:10:53;;;;;;;11.80;6.25;;;14.10;99.90;;;;;;6124748;23;20018;-85
2023/07/26 06:13:34;;;;;;;13.10;5.57;;;13.90;99.90;;;;;;6123881;23;20014;-85
2023/07/26 06:16:12;;;;;;;11.32;5.68;;;13.00;99.90;;;;;;6124056;23;20434;-85
2023/07/26 06:18:38;;;;;;;11.57;6.03;;;13.20;99.90;;;;;;6124433;23;20017;-83
2023/07/26 06:21:06;;;;;;;11.30;5.75;;;13.30;99.90;;;;;;6123796;23;20018;-83
2023/07/26 06:24:25;;;;;;;11.73;5.60;;;13.40;99.90;;;;;;6124344;23;20026;-81
2023/07/26 06:26:57;;;;;;;10.50;5.57;;;13.00;99.90;;;;;;6124741;23;20458;-82
2023/07/26 06:29:26;;;;;;;11.45;5.68;;;13.60;99.90;;;;;;6124107;23;20018;-83
2023/07/26 06:31:52;;;;;;;10.38;5.38;;;13.70;99.90;;;;;;6126363;23;20044;-84
2023/07/26 06:34:17;;;;;;;11.18;5.65;;;13.90;99.90;;;;;;6124082;23;20495;-83
2023/07/26 06:36:49;;;;;;;10.98;5.80;;;13.90;99.90;;;;;;6124605;23;20026;-84
2023/07/26 06:39:15;;;;;;;11.57;5.50;;;14.80;99.90;;;;;;6126648;23;20442;-84
2023/07/26 06:41:50;;;;;;;12.68;5.68;;;13.90;99.90;;;;;;6125390;23;20044;-83
2023/07/26 06:44:21;;;;;;;11.45;6.03;;;14.00;99.90;;;;;;6126247;23;20344;-84
2023/07/26 06:46:47;;;;;;;10.98;5.93;;;14.00;99.90;;;;;;6126307;23;20360;-84
2023/07/26 06:49:13;;;;;;;10.88;5.68;;;14.10;99.90;;;;;;6124013;23;20029;-84
2023/07/26 06:51:51;;;;;;;11.85;5.38;;;14.10;99.90;;;;;;6126494;23;20049;-84
2023/07/26 06:54:16;;;;;;;11.20;5.28;;;15.00;99.90;;;;;;6100640;23;20018;-84
2023/07/26 06:56:42;;;;;;;10.60;5.55;;;14.40;99.90;;;;;;6125577;23;20025;-85
2023/07/26 06:59:12;;;;;;;11.45;5.70;;;14.00;99.90;;;;;;6100382;23;20021;-84
2023/07/26 07:01:52;;;;;;;11.38;5.30;;;14.10;99.90;;;;;;6096672;23;20022;-85
2023/07/26 07:04:20;;;;;;;10.20;5.15;;;14.10;99.90;;;;;;6098753;23;20018;-84
2023/07/26 07:07:04;;;;;;;10.35;5.03;;;14.20;99.90;;;;;;6099491;23;20497;-85
2023/07/26 07:09:32;;;;;;;13.85;5.35;;;14.20;99.90;;;;;;6125421;23;20025;-84
2023/07/26 07:12:04;;;;;;;11.80;5.32;;;14.50;99.90;;;;;;6125769;23;20510;-85
2023/07/26 07:14:48;;;;;;;11.02;5.30;;;14.20;99.90;;;;;;6099425;23;20097;-84
2023/07/26 07:17:14;;;;;;;;;;;14.40;99.90;;;;;;6098039;23;20025;-85
2023/07/26 07:19:49;;;;;;;10.57;5.63;;;14.50;99.90;;;;;;6124595;23;20688;-85
2023/07/26 07:22:18;;;;;;;10.27;5.38;;;14.70;99.90;;;;;;6100025;23;20014;-84
2023/07/26 07:24:50;;;;;;;13.48;5.60;;;14.70;99.90;;;;;;6098841;23;20064;-84
2023/07/26 07:28:11;;;;;;;10.93;5.60;;;14.70;99.90;;;;;;6125267;23;20010;-83
2023/07/26 07:30:52;;;;;;;12.05;5.40;;;15.00;99.90;;;;;;6098698;23;20076;-85
2023/07/26 07:33:39;;;;;;;10.98;5.18;;;14.80;99.90;;;;;;6097114;23;20513;-85
2023/07/26 07:36:26;;;;;;;10.32;4.97;;;14.90;99.90;;;;;;6099339;23;20018;-85
2023/07/26 07:38:52;;;;;;;10.00;5.20;;;15.10;99.90;;;;;;6097581;23;20061;-85
2023/07/26 07:41:17;;;;;;;10.68;5.53;;;15.00;99.90;;;;;;6098741;23;20010;-85
2023/07/26 07:43:55;;;;;;;11.55;6.13;;;15.30;99.90;;;;;;6098841;23;20044;-83
2023/07/26 07:46:44;;;;;;;10.63;5.72;;;15.80;99.90;;;;;;6097670;23;20828;-84
2023/07/26 07:49:13;;;;;;;15.38;5.55;;;14.70;99.90;;;;;;6098714;23;20089;-84
2023/07/26 07:52:04;;;;;;;11.57;5.85;;;14.60;99.90;;;;;;6069555;23;20026;-84
2023/07/26 07:54:42;;;;;;;11.82;6.18;;;14.60;99.90;;;;;;6096373;23;20022;-85
2023/07/26 07:57:14;;;;;;;11.43;5.75;;;14.50;99.90;;;;;;6070128;23;20026;-86
2023/07/26 07:59:40;;;;;;;13.27;6.57;;;14.40;99.90;;;;;;6068895;23;20018;-85
2023/07/26 08:02:05;;;;;;;13.70;6.80;;;14.50;99.90;;;;;;6095807;23;20018;-83
2023/07/26 08:04:31;;;;;;;14.57;6.45;;;14.60;99.90;;;;;;6096028;23;20011;-86
2023/07/26 08:07:00;;;;;;;11.90;6.50;;;15.30;99.90;;;;;;6069336;23;20093;-86
2023/07/26 08:09:25;;;;;;;14.93;7.05;;;14.20;99.90;;;;;;6096069;23;20019;-86
2023/07/26 08:11:51;;;;;;;14.30;8.07;;;14.10;99.90;;;;;;6070614;23;20015;-87
2023/07/26 08:14:17;;;;;;;14.05;7.65;;;14.00;99.90;;;;;;6095318;23;20080;-84
2023/07/26 08:17:03;;;;;;;14.20;7.57;;;13.80;99.90;;;;;;6070680;23;20018;-84
2023/07/26 08:19:41;;;;;;;15.60;8.40;;;13.70;99.90;;;;;;6069899;23;20018;-85
2023/07/26 08:22:07;;;;;;;15.63;8.40;;;14.80;99.90;;;;;;6096054;23;20014;-85
2023/07/26 08:24:32;;;;;;;15.15;8.40;;;13.50;99.90;;;;;;6070745;23;20150;-84
2023/07/26 08:26:58;;;;;;;16.95;8.60;;;14.40;99.90;;;;;;6094184;23;20018;-83
2023/07/26 08:29:24;;;;;;;12.63;6.68;;;13.50;99.90;;;;;;6096259;23;20018;-84
2023/07/26 08:31:56;;;;;;;13.60;7.65;;;13.50;99.90;;;;;;6069908;23;20574;-84
2023/07/26 08:34:22;;;;;;;13.98;7.45;;;13.50;99.90;;;;;;6069475;23;20083;-84
2023/07/26 08:36:47;;;;;;;13.95;7.90;;;13.60;99.90;;;;;;6094741;23;20018;-84
2023/07/26 08:39:13;;;;;;;13.05;6.20;;;13.80;99.90;;;;;;6069581;23;20074;-84
2023/07/26 08:41:49;;;;;;;11.52;6.13;;;13.90;99.90;;;;;;6069688;23;20066;-83
2023/07/26 08:44:15;;;;;;;12.70;5.68;;;14.60;99.90;;;;;;6095746;23;20018;-83
2023/07/26 08:47:04;;;;;;;13.15;5.70;;;14.00;99.90;;;;;;6076918;23;20026;-84
2023/07/26 08:49:40;;;;;;;;;;;;;;;;;;;;;
2023/07/26 08:52:32;;;;;;;11.05;5.80;;;14.40;99.90;;;;;;6125481;23;20502;-85
2023/07/26 08:55:17;;;;;;;13.63;6.45;;;14.80;99.90;;;;;;6098182;23;20068;-85
2023/07/26 08:57:43;;;;;;;9.60;4.85;;;14.90;99.90;;;;;;6124720;23;20411;-84
2023/07/26 09:00:21;;;;;;;10.75;4.93;;;15.00;99.90;;;;;;6099423;23;20017;-84
2023/07/26 09:02:48;;;;;;;10.25;4.97;;;15.00;99.90;;;;;;6094908;23;20014;-84
2023/07/26 09:05:14;;;;;;;10.43;4.88;;;14.90;99.90;;;;;;6070451;23;20022;-84
2023/07/26 09:07:39;;;;;;;8.75;4.15;;;15.90;99.90;;;;;;6070240;23;20014;-84
2023/07/26 09:10:25;;;;;;;10.15;4.35;;;15.00;99.90;;;;;;6064893;23;20018;-83
2023/07/26 09:12:51;;;;;;;9.55;3.65;;;15.00;99.90;;;;;;6070057;23;20015;-84
2023/07/26 09:18:54;;;;;;;8.32;3.03;;;15.20;99.90;;;;;;6096062;23;20022;-84
2023/07/26 09:21:36;;;;;;;8.48;3.13;;;15.00;99.90;;;;;;5951962;24;20032;-83
2023/07/26 09:24:17;;;;;;;8.40;3.08;;;15.00;99.90;;;;;;5958005;23;20469;-83
2023/07/26 09:26:43;;;;;;;8.55;3.08;;;15.00;99.90;;;;;;6096055;23;20470;-84
2023/07/26 09:29:25;;;;;;;9.35;3.58;;;15.30;99.90;;;;;;6070500;23;20329;-84
2023/07/26 09:31:51;;;;;;;8.68;3.15;;;15.60;99.90;;;;;;6069284;23;20026;-83
2023/07/26 09:34:18;;;;;;;6.97;2.60;;;15.90;99.90;;;;;;6070616;23;20022;-84
2023/07/26 09:36:59;;;;;;;7.32;2.65;;;16.10;99.90;;;;;;6095858;23;20030;-83
2023/07/26 09:39:28;;;;;;;7.63;2.90;;;16.20;99.90;;;;;;6068024;23;20018;-83
2023/07/26 09:42:08;;;;;;;7.43;2.50;;;17.00;99.90;;;;;;6069803;23;20384;-83
2023/07/26 09:44:35;;;;;;;8.10;2.60;;;16.50;99.90;;;;;;6094623;23;20019;-84
2023/07/26 09:47:01;;;;;;;7.60;2.67;;;16.70;99.90;;;;;;6070451;23;20014;-84
2023/07/26 09:49:27;;;;;;;7.97;2.70;;;16.90;99.90;;;;;;6071113;23;20531;-84
2023/07/26 09:51:57;;;;;;;8.43;2.95;;;17.00;99.90;;;;;;6071295;23;20014;-84
2023/07/26 09:54:28;;;;;;;8.38;3.05;;;17.00;99.90;;;;;;6071272;23;20077;-84
2023/07/26 09:56:57;;;;;;;8.35;3.45;;;17.00;99.90;;;;;;6071580;23;20528;-84
2023/07/26 09:59:29;;;;;;;8.60;3.40;;;16.90;99.90;;;;;;6071644;23;20022;-84
2023/07/26 10:01:58;;;;;;;8.35;3.60;;;16.70;99.90;;;;;;6097561;23;20014;-84
2023/07/26 10:04:36;;;;;;;7.75;3.40;;;16.80;99.90;;;;;;6092316;23;20061;-83
2023/07/26 10:07:06;;;;;;;9.23;3.42;;;16.90;99.90;;;;;;6100261;23;20096;-83
2023/07/26 10:09:33;;;;;;;9.02;3.60;;;17.00;99.90;;;;;;6126715;23;20657;-84
2023/07/26 10:12:02;;;;;;;8.98;3.55;;;17.10;99.90;;;;;;6126636;23;20438;-83
2023/07/26 10:14:30;;;;;;;9.20;3.63;;;17.20;99.90;;;;;;6127073;23;20025;-83
2023/07/26 10:16:58;;;;;;;10.23;3.85;;;17.60;99.90;;;;;;6100732;23;20018;-83
2023/07/26 10:19:26;;;;;;;8.05;3.40;;;17.70;99.90;;;;;;6100081;23;20402;-83
2023/07/26 10:21:52;;;;;;;8.73;3.80;;;17.60;99.90;;;;;;6099606;23;20032;-83
2023/07/26 10:24:19;;;;;;;8.52;3.95;;;17.80;99.90;;;;;;6100378;23;20014;-84
2023/07/26 10:26:46;;;;;;;8.75;3.50;;;17.70;99.90;;;;;;6099126;23;20021;-84
2023/07/26 10:29:12;;;;;;;8.18;3.55;;;17.90;99.90;;;;;;6126058;23;20097;-83
2023/07/26 10:31:38;;;;;;;8.13;3.53;;;17.40;99.90;;;;;;6123253;23;20498;-84
2023/07/26 10:34:04;;;;;;;8.27;3.28;;;17.80;99.90;;;;;;6098135;23;20021;-86
2023/07/26 10:40:32;;;;;;;8.02;3.22;;;18.20;99.90;;;;;;6155417;23;20022;-86
2023/07/26 10:43:26;;;;;;;8.30;3.60;;;18.60;99.90;;;;;;6153610;23;20045;-85
2023/07/26 10:46:08;;;;;;;;;;;18.70;99.90;;;;;;6156267;23;20073;-86
2023/07/26 10:49:24;;;;;;;;;;;;;;;;;;;;;
2023/07/26 10:52:05;;;;;;;8.00;3.38;;;18.20;99.90;;;;;;6153339;23;20438;-83
2023/07/26 10:55:16;;;;;;;8.23;3.20;;;18.50;99.90;;;;;;6153882;23;20049;-83
2023/07/26 10:57:59;;;;;;;7.68;3.15;;;18.00;99.90;;;;;;6072534;23;20022;-83
2023/07/26 11:00:50;;;;;;;9.20;3.20;;;18.70;99.90;;;;;;6156331;23;20017;-84
2023/07/26 11:07:04;;;;;;;9.95;3.28;;;19.20;99.90;;;;;;6150706;23;20037;-84
2023/07/26 11:09:36;;;;;;;8.52;3.15;;;19.20;99.90;;;;;;6099318;23;20018;-86
2023/07/26 11:12:13;;;;;;;8.05;3.20;;;19.00;99.90;;;;;;6126689;23;20100;-85
2023/07/26 11:14:39;;;;;;;8.82;3.22;;;18.60;99.90;;;;;;6100752;23;20022;-84
2023/07/26 11:17:11;;;;;;;8.45;3.28;;;18.80;99.90;;;;;;6125681;23;20053;-84
2023/07/26 11:19:50;;;;;;;8.55;3.53;;;18.40;99.90;;;;;;6126120;23;20469;-86
2023/07/26 11:22:18;;;;;;;8.20;3.25;;;18.20;99.90;;;;;;6126272;23;20077;-86
2023/07/26 11:24:44;;;;;;;8.32;3.20;;;18.30;99.90;;;;;;6099623;23;20021;-85
2023/07/26 11:27:10;;;;;;;8.57;3.17;;;18.40;99.90;;;;;;6100390;23;20014;-85
2023/07/26 11:29:36;;;;;;;7.90;2.95;;;18.50;99.90;;;;;;6099114;23;20014;-84
2023/07/26 11:32:03;;;;;;;7.97;3.20;;;18.70;99.90;;;;;;6100368;23;20477;-85
2023/07/26 11:34:29;;;;;;;8.40;2.90;;;19.20;99.90;;;;;;6100092;23;20028;-82
2023/07/26 11:37:24;;;;;;;8.82;3.13;;;19.30;99.90;;;;;;6124520;23;20049;-83
2023/07/26 11:40:09;;;;;;;8.82;3.38;;;19.20;99.90;;;;;;6094251;23;20073;-83
2023/07/26 11:42:34;;;;;;;7.72;2.95;;;19.10;99.90;;;;;;6124811;23;20022;-82
2023/07/26 11:45:05;;;;;;;7.68;2.53;;;18.80;99.90;;;;;;6125572;23;20020;-83
2023/07/26 11:47:37;;;;;;;6.95;2.35;;;18.30;99.90;;;;;;6100104;23;20018;-83
2023/07/26 11:50:03;;;;;;;7.75;2.22;;;17.60;99.90;;;;;;6100367;23;20053;-83
2023/07/26 11:52:29;;;;;;;6.53;1.77;;;16.70;99.90;;;;;;6099424;23;20021;-86
2023/07/26 11:55:00;;;;;;;4.20;1.50;;;15.90;99.90;;;;;;6099166;23;20016;-87
2023/07/26 11:57:26;;;;;;;4.18;1.50;;;15.50;99.90;;;;;;6099871;23;20024;-84
2023/07/26 11:59:56;;;;;;;5.10;1.40;;;15.10;99.90;;;;;;6098401;23;20026;-83
2023/07/26 12:02:23;;;;;;;3.65;1.50;;;15.20;99.90;;;;;;6099357;23;20014;-84
2023/07/26 12:05:18;;;;;;;4.65;1.50;;;15.50;99.90;;;;;;6098269;23;20517;-82
2023/07/26 12:07:49;;;;;;;4.25;1.75;;;15.80;99.90;;;;;;6092461;23;20081;-83
2023/07/26 12:10:38;;;;;;;5.78;1.95;;;16.00;99.90;;;;;;6125753;23;20521;-83
2023/07/26 12:13:09;;;;;;;7.05;2.20;;;16.30;99.90;;;;;;6079470;23;20018;-83
2023/07/26 12:15:54;;;;;;;8.35;2.60;;;16.80;99.90;;;;;;6125529;23;20037;-83
2023/07/26 12:18:22;;;;;;;6.63;2.58;;;17.30;99.90;;;;;;6100174;23;20451;-81
2023/07/26 12:21:09;;;;;;;7.95;2.30;;;17.70;99.90;;;;;;6125183;23;20025;-81
2023/07/26 12:23:53;;;;;;;8.23;2.60;;;18.10;99.90;;;;;;6099599;23;20097;-80
2023/07/26 12:26:19;;;;;;;;;;;18.40;99.90;;;;;;6125973;23;20024;-81
2023/07/26 12:28:45;;;;;;;7.50;2.33;;;18.80;99.90;;;;;;6098020;23;19924;-81
2023/07/26 12:31:31;;;;;;;7.82;2.60;;;19.20;99.90;;;;;;6099185;23;20024;-80
2023/07/26 12:34:03;;;;;;;13.57;2.80;;;19.30;99.90;;;;;;6097828;23;20022;-81
2023/07/26 12:36:30;;;;;;;6.65;2.25;;;19.60;99.90;;;;;;6099100;23;20096;-81
2023/07/26 12:38:57;;;;;;;7.72;2.50;;;19.60;99.90;;;;;;6098984;23;20489;-81
2023/07/26 12:41:23;;;;;;;6.63;2.30;;;19.80;99.90;;;;;;6124358;23;20017;-81
2023/07/26 12:43:54;;;;;;;7.15;2.38;;;19.70;99.90;;;;;;6124855;23;20018;-81
2023/07/26 12:46:21;;;;;;;8.27;2.10;;;19.90;99.90;;;;;;6099721;23;20021;-81
2023/07/26 12:48:46;;;;;;;5.90;2.15;;;19.80;99.90;;;;;;6099537;23;20010;-81
2023/07/26 12:51:12;;;;;;;6.07;2.00;;;20.10;99.90;;;;;;6100811;23;20073;-82
2023/07/26 12:53:38;;;;;;;5.85;1.95;;;20.30;99.90;;;;;;6099515;23;20018;-82
2023/07/26 12:56:03;;;;;;;5.93;2.05;;;20.40;99.90;;;;;;6098510;23;20450;-81
2023/07/26 12:58:29;;;;;;;6.20;1.90;;;20.40;99.90;;;;;;6125939;23;20320;-81
2023/07/26 13:00:55;;;;;;;5.95;1.90;;;20.50;99.90;;;;;;6098700;23;20018;-81
2023/07/26 13:03:21;;;;;;;6.15;2.00;;;20.60;99.90;;;;;;6125194;23;20077;-81
2023/07/26 13:05:48;;;;;;;5.95;1.95;;;20.60;99.90;;;;;;6099341;23;20022;-82
2023/07/26 13:08:13;;;;;;;6.18;2.00;;;20.60;99.90;;;;;;6098691;23;20018;-81
2023/07/26 13:10:39;;;;;;;6.63;2.22;;;20.50;99.90;;;;;;6125257;23;20082;-81
2023/07/26 13:13:05;;;;;;;7.35;2.20;;;20.40;99.90;;;;;;6099886;23;20338;-81
2023/07/26 13:15:30;;;;;;;6.82;2.30;;;20.40;99.90;;;;;;6098809;23;20014;-81
2023/07/26 13:17:56;;;;;;;6.28;2.17;;;20.50;99.90;;;;;;6099080;23;20018;-80
2023/07/26 13:20:21;;;;;;;7.65;2.20;;;20.70;99.90;;;;;;6099578;23;20021;-81
2023/07/26 13:22:48;;;;;;;7.65;2.55;;;20.80;99.90;;;;;;6098771;23;20026;-81
2023/07/26 13:25:13;;;;;;;6.60;2.10;;;20.80;99.90;;;;;;6126577;23;20513;-81
2023/07/26 13:27:39;;;;;;;6.85;2.20;;;21.30;99.90;;;;;;6100985;23;20014;-81
2023/07/26 13:30:06;;;;;;;8.02;2.30;;;21.60;99.90;;;;;;6100671;23;20022;-81
2023/07/26 13:32:31;;;;;;;7.68;2.65;;;21.20;99.90;;;;;;6101386;23;20453;-81
2023/07/26 13:34:57;;;;;;;7.78;2.50;;;21.00;99.90;;;;;;6127298;23;20026;-80
2023/07/26 13:37:23;;;;;;;7.05;2.35;;;20.70;99.90;;;;;;6126423;23;20022;-81
2023/07/26 13:39:49;;;;;;;7.93;2.60;;;20.50;99.90;;;;;;6101178;23;20446;-81
2023/07/26 13:42:15;;;;;;;7.45;2.42;;;20.20;99.90;;;;;;6127262;23;20458;-81
2023/07/26 13:44:42;;;;;;;8.25;2.83;;;20.10;99.90;;;;;;6100500;23;20028;-82
2023/07/26 13:47:08;;;;;;;7.45;2.67;;;20.00;99.90;;;;;;6127596;23;20022;-82
2023/07/26 13:49:33;;;;;;;6.63;2.40;;;20.20;99.90;;;;;;6127583;23;20050;-81
2023/07/26 13:51:59;;;;;;;6.85;2.50;;;20.40;99.90;;;;;;6100481;23;20022;-81
2023/07/26 13:54:25;;;;;;;8.95;2.90;;;20.30;99.90;;;;;;6101996;23;20048;-82
2023/07/26 13:56:50;;;;;;;7.65;2.70;;;20.30;99.90;;;;;;6126422;23;20460;-81
2023/07/26 13:59:16;;;;;;;8.70;2.70;;;20.40;99.90;;;;;;6100258;23;20014;-82
2023/07/26 14:01:42;;;;;;;9.25;2.90;;;20.30;99.90;;;;;;6100229;23;20395;-82
2023/07/26 14:04:07;;;;;;;9.50;2.67;;;20.80;99.90;;;;;;6126697;23;20102;-82
2023/07/26 14:06:33;;;;;;;9.45;3.17;;;20.90;99.90;;;;;;6099910;23;20520;-81
2023/07/26 14:08:59;;;;;;;10.18;2.60;;;21.30;99.90;;;;;;6100855;23;20379;-82
2023/07/26 14:11:25;;;;;;;7.82;2.47;;;21.30;99.90;;;;;;6126601;23;20072;-82
2023/07/26 14:13:51;;;;;;;6.63;2.40;;;21.20;99.90;;;;;;6126626;23;20014;-83
2023/07/26 14:16:17;;;;;;;7.75;2.50;;;20.80;99.90;;;;;;6127149;23;20022;-82
2023/07/26 14:18:42;;;;;;;8.23;2.90;;;20.30;99.90;;;;;;6099900;23;20497;-82
2023/07/26 14:21:08;;;;;;;7.68;2.58;;;19.90;99.90;;;;;;6127020;23;20022;-82
2023/07/26 14:23:34;;;;;;;8.95;2.60;;;19.40;99.90;;;;;;6126708;23;20014;-82
2023/07/26 14:26:01;;;;;;;8.15;2.80;;;19.00;99.90;;;;;;6100466;23;20017;-82
2023/07/26 14:28:27;;;;;;;9.15;2.72;;;18.80;99.90;;;;;;6100837;23;20169;-82
2023/07/26 14:30:53;;;;;;;8.38;2.88;;;18.50;99.90;;;;;;6100138;23;20097;-82
2023/07/26 14:33:19;;;;;;;8.25;2.90;;;18.50;99.90;;;;;;6099338;23;20037;-82
2023/07/26 14:35:46;;;;;;;8.43;2.83;;;18.30;99.90;;;;;;6097538;23;20113;-82
2023/07/26 14:38:12;;;;;;;8.30;3.00;;;18.20;99.90;;;;;;6099927;23;20097;-82
2023/07/26 14:40:38;;;;;;;7.05;2.55;;;18.30;99.90;;;;;;6099220;23;20072;-82
2023/07/26 14:43:03;;;;;;;7.88;2.67;;;18.70;99.90;;;;;;6101100;23;20346;-82
2023/07/26 14:45:29;;;;;;;8.73;2.95;;;19.10;99.90;;;;;;6126856;23;20018;-83
2023/07/26 14:47:55;;;;;;;9.13;3.00;;;19.60;99.90;;;;;;6125490;23;20331;-83
2023/07/26 14:50:21;;;;;;;10.10;3.58;;;19.70;99.90;;;;;;6100797;23;20029;-83
2023/07/26 14:52:46;;;;;;;9.45;3.20;;;20.10;99.90;;;;;;6100347;23;20510;-83
2023/07/26 14:55:12;;;;;;;9.82;3.38;;;20.50;99.90;;;;;;6099160;23;20024;-83
2023/07/26 14:57:38;;;;;;;9.07;2.95;;;20.80;99.90;;;;;;6099972;23;20076;-83
2023/07/26 15:00:05;;;;;;;10.00;3.35;;;21.10;99.90;;;;;;6100778;23;20024;-83
2023/07/26 15:02:31;;;;;;;7.38;2.72;;;21.30;99.90;;;;;;6099239;23;20080;-83
2023/07/26 15:04:57;;;;;;;9.73;3.03;;;21.50;99.90;;;;;;6100350;23;20075;-83
2023/07/26 15:07:23;;;;;;;7.45;2.92;;;21.60;99.90;;;;;;6099548;23;20022;-83
2023/07/26 15:09:50;;;;;;;8.73;2.83;;;21.40;99.90;;;;;;6100219;23;20046;-83
2023/07/26 15:12:16;;;;;;;7.82;3.08;;;21.20;99.90;;;;;;6127051;23;20022;-82
2023/07/26 15:14:41;;;;;;;9.82;2.95;;;21.40;99.90;;;;;;6099558;23;20096;-83
2023/07/26 15:17:07;;;;;;;7.43;2.67;;;21.50;99.90;;;;;;6125162;23;20026;-84
2023/07/26 15:19:33;;;;;;;9.43;2.88;;;21.70;99.90;;;;;;6126133;23;20029;-83
2023/07/26 15:21:59;;;;;;;9.18;2.75;;;21.40;99.90;;;;;;6099536;23;20323;-81
2023/07/26 15:24:25;;;;;;;9.85;2.75;;;21.50;99.90;;;;;;6100978;23;20033;-82
2023/07/26 15:26:51;;;;;;;9.00;3.10;;;21.20;99.90;;;;;;6125253;23;20024;-82
2023/07/26 15:29:17;;;;;;;9.43;2.60;;;20.90;99.90;;;;;;6098560;23;20026;-83
2023/07/26 15:31:43;;;;;;;9.52;2.80;;;20.60;99.90;;;;;;6098670;23;20021;-82
2023/07/26 15:34:08;;;;;;;8.95;3.15;;;20.50;99.90;;;;;;6098607;23;20061;-81
2023/07/26 15:36:34;;;;;;;7.57;3.03;;;20.40;99.90;;;;;;6124982;23;20014;-82
2023/07/26 15:38:59;;;;;;;8.98;2.75;;;20.70;99.90;;;;;;6126588;23;20089;-82
2023/07/26 15:41:25;;;;;;;7.75;2.72;;;21.10;99.90;;;;;;6099216;23;20017;-81
2023/07/26 15:43:51;;;;;;;10.00;2.83;;;21.50;99.90;;;;;;6125254;23;20051;-81
2023/07/26 15:46:17;;;;;;;7.38;2.85;;;21.60;99.90;;;;;;6099861;23;20024;-82
2023/07/26 15:48:42;;;;;;;8.70;3.00;;;21.60;99.90;;;;;;6125973;23;20085;-81
2023/07/26 15:51:08;;;;;;;7.80;2.80;;;21.90;99.90;;;;;;6098813;23;20469;-81
2023/07/26 15:53:34;;;;;;;8.00;2.90;;;21.80;99.90;;;;;;6099529;23;20014;-81
2023/07/26 15:55:59;;;;;;;8.57;2.88;;;21.60;99.90;;;;;;6098875;23;20022;-81
2023/07/26 15:58:27;;;;;;;7.97;2.78;;;21.30;99.90;;;;;;6099149;23;20356;-80
2023/07/26 16:00:53;;;;;;;8.43;2.80;;;20.90;99.90;;;;;;6125395;23;20018;-81
2023/07/26 16:03:18;;;;;;;8.20;2.83;;;20.90;99.90;;;;;;6099835;23;20014;-80
2023/07/26 16:05:44;;;;;;;8.55;3.22;;;20.70;99.90;;;;;;6124711;23;20089;-80
2023/07/26 16:08:10;;;;;;;8.85;3.20;;;20.60;99.90;;;;;;6125468;23;20351;-80
2023/07/26 16:10:35;;;;;;;10.25;3.10;;;20.30;99.90;;;;;;6099573;23;20331;-80
2023/07/26 16:13:01;;;;;;;8.07;3.10;;;20.20;99.90;;;;;;6125472;23;20029;-82
2023/07/26 16:15:27;;;;;;;9.57;3.08;;;20.20;99.90;;;;;;6123557;23;20017;-81
2023/07/26 16:17:52;;;;;;;8.43;3.30;;;20.30;99.90;;;;;;6124834;23;20092;-81
2023/07/26 16:20:18;;;;;;;11.20;3.08;;;20.50;99.90;;;;;;6098918;23;20072;-81
2023/07/26 16:22:44;;;;;;;8.95;3.40;;;20.60;99.90;;;;;;6098206;23;20323;-82
2023/07/26 16:25:10;;;;;;;10.65;3.67;;;20.30;99.90;;;;;;6125404;23;20454;-82
2023/07/26 16:27:36;;;;;;;8.38;3.10;;;20.40;99.90;;;;;;6098546;23;20345;-83
2023/07/26 16:30:03;;;;;;;9.23;3.28;;;20.50;99.90;;;;;;6124493;23;20010;-82
2023/07/26 16:32:29;;;;;;;8.45;2.90;;;20.80;99.90;;;;;;6096807;23;20022;-82
2023/07/26 16:34:54;;;;;;;8.48;3.20;;;20.90;99.90;;;;;;6125531;23;20010;-81
2023/07/26 16:37:20;;;;;;;9.80;3.22;;;21.00;99.90;;;;;;6099311;23;20066;-82
2023/07/26 16:39:46;;;;;;;8.70;3.05;;;21.20;99.90;;;;;;6124316;23;20025;-80
2023/07/26 16:42:12;;;;;;;9.43;3.40;;;21.10;99.90;;;;;;6099806;23;20041;-81
2023/07/26 16:44:37;;;;;;;9.02;2.92;;;21.20;99.90;;;;;;6099214;23;20092;-81
2023/07/26 16:47:04;;;;;;;8.63;3.20;;;21.00;99.90;;;;;;6098733;23;20026;-80
2023/07/26 16:49:32;;;;;;;10.27;3.15;;;20.90;99.90;;;;;;6099496;23;20062;-80
2023/07/26 16:51:57;;;;;;;8.73;3.10;;;20.90;99.90;;;;;;6125285;23;20013;-81
2023/07/26 16:54:23;;;;;;;7.53;2.95;;;21.20;99.90;;;;;;6098715;23;20081;-80
2023/07/26 16:56:49;;;;;;;10.57;2.95;;;21.10;99.90;;;;;;6124834;23;20451;-81
2023/07/26 16:59:15;;;;;;;8.10;2.90;;;20.90;99.90;;;;;;6098928;23;20088;-81
2023/07/26 17:01:41;;;;;;;9.30;3.42;;;20.70;99.90;;;;;;6124018;23;20014;-81
2023/07/26 17:04:07;;;;;;;9.55;3.22;;;20.20;99.90;;;;;;6099373;23;20014;-81
2023/07/26 17:06:32;;;;;;;8.90;3.10;;;19.90;99.90;;;;;;6099364;23;20434;-80
2023/07/26 17:08:58;;;;;;;8.73;2.80;;;19.70;99.90;;;;;;6123496;23;20046;-80
2023/07/26 17:11:24;;;;;;;9.05;3.30;;;19.60;99.90;;;;;;6125369;23;20014;-81
2023/07/26 17:13:50;;;;;;;8.73;3.42;;;19.60;99.90;;;;;;6098753;23;20021;-81
2023/07/26 17:16:16;;;;;;;9.45;3.63;;;19.50;99.90;;;;;;6124248;23;20451;-81
2023/07/26 17:18:48;;;;;;;7.40;3.20;;;19.50;99.90;;;;;;6125324;23;20088;-81
2023/07/26 17:21:15;;;;;;;11.20;3.50;;;20.00;99.90;;;;;;6125146;23;20014;-81
2023/07/26 17:23:41;;;;;;;8.40;3.28;;;20.60;99.90;;;;;;6098808;23;20752;-81
2023/07/26 17:26:08;;;;;;;8.32;3.20;;;20.90;99.90;;;;;;6099523;23;20073;-81
2023/07/26 17:28:34;;;;;;;7.60;3.03;;;20.70;99.90;;;;;;6123182;23;20046;-82
2023/07/26 17:31:00;;;;;;;10.25;3.70;;;20.30;99.90;;;;;;6099014;23;20026;-82
2023/07/26 17:33:28;;;;;;;8.27;3.22;;;20.10;99.90;;;;;;6125070;23;20514;-82
2023/07/26 17:35:54;;;;;;;8.75;3.20;;;19.80;99.90;;;;;;6124030;23;20018;-82
2023/07/26 17:38:20;;;;;;;8.93;3.60;;;19.70;99.90;;;;;;6124848;23;20570;-82
2023/07/26 17:40:56;;;;;;;10.60;3.40;;;19.80;99.90;;;;;;6099360;23;20010;-82
2023/07/26 17:43:22;;;;;;;8.57;3.17;;;19.80;99.90;;;;;;6124769;23;20042;-81
2023/07/26 17:45:48;;;;;;;8.95;2.92;;;19.60;99.90;;;;;;6125100;23;20096;-82
2023/07/26 17:48:14;;;;;;;9.05;3.20;;;19.50;99.90;;;;;;6099422;23;20101;-83
2023/07/26 17:50:40;;;;;;;9.80;3.30;;;19.40;99.90;;;;;;6097935;23;20045;-82
2023/07/26 17:53:05;;;;;;;8.55;3.08;;;19.20;99.90;;;;;;6099274;23;20033;-81
2023/07/26 17:55:31;;;;;;;9.88;3.33;;;19.10;99.90;;;;;;6098966;23;20057;-81
2023/07/26 17:57:57;;;;;;;11.02;3.50;;;19.00;99.90;;;;;;6097749;23;20014;-81
2023/07/26 18:00:22;;;;;;;10.27;3.80;;;18.90;99.90;;;;;;6122785;23;20449;-81
2023/07/26 18:02:49;;;;;;;8.57;3.10;;;18.80;99.90;;;;;;6124499;23;20018;-81
2023/07/26 18:05:15;;;;;;;11.32;3.83;;;18.80;99.90;;;;;;6098110;23;20093;-81
2023/07/26 18:07:42;;;;;;;8.90;3.30;;;19.00;99.90;;;;;;6123702;23;20068;-81
2023/07/26 18:10:08;;;;;;;9.25;3.38;;;19.70;99.90;;;;;;6124705;23;20021;-81
2023/07/26 18:12:34;;;;;;;8.93;3.30;;;20.40;99.90;;;;;;6125370;23;20085;-81
2023/07/26 18:15:01;;;;;;;9.05;3.78;;;20.80;99.90;;;;;;6100575;23;20089;-81
2023/07/26 18:17:27;;;;;;;7.97;3.10;;;21.10;99.90;;;;;;6099693;23;20022;-81
2023/07/26 18:19:53;;;;;;;8.93;3.47;;;21.30;99.90;;;;;;6099644;23;20022;-81
2023/07/26 18:22:19;;;;;;;9.60;3.35;;;21.40;99.90;;;;;;6100858;23;20018;-82
2023/07/26 18:24:44;;;;;;;10.30;3.38;;;21.60;99.90;;;;;;6099310;23;20092;-81
2023/07/26 18:27:12;;;;;;;8.82;3.42;;;21.60;99.90;;;;;;6126898;23;20018;-81
2023/07/26 18:29:37;;;;;;;9.30;3.50;;;21.50;99.90;;;;;;6100396;23;20101;-82
2023/07/26 18:32:03;;;;;;;8.25;3.03;;;21.10;99.90;;;;;;6099839;23;20073;-81
2023/07/26 18:34:30;;;;;;;9.13;3.22;;;20.90;99.90;;;;;;6127121;23;20093;-81
2023/07/26 18:36:58;;;;;;;9.60;3.50;;;20.60;99.90;;;;;;6100171;23;20103;-81
2023/07/26 18:39:24;;;;;;;9.27;3.40;;;20.00;99.90;;;;;;6125723;23;20049;-81
2023/07/26 18:41:50;;;;;;;9.52;3.38;;;19.50;99.90;;;;;;6100002;23;20029;-81
2023/07/26 18:44:15;;;;;;;10.02;3.75;;;19.30;99.90;;;;;;6100306;23;20014;-81
2023/07/26 18:46:41;;;;;;;9.10;3.50;;;18.80;99.90;;;;;;6099625;23;20073;-83
2023/07/26 18:49:07;;;;;;;9.80;3.55;;;18.60;99.90;;;;;;6101407;23;20071;-84
2023/07/26 18:51:33;;;;;;;9.30;3.58;;;18.50;99.90;;;;;;6125453;23;20025;-83
2023/07/26 18:54:00;;;;;;;9.43;3.40;;;18.30;99.90;;;;;;6099128;23;20044;-83
2023/07/26 18:56:25;;;;;;;9.63;3.53;;;18.20;99.90;;;;;;6099831;23;20018;-84
2023/07/26 18:58:51;;;;;;;8.10;3.50;;;18.20;99.90;;;;;;6126381;23;20029;-83
2023/07/26 19:01:17;;;;;;;10.02;4.05;;;18.00;99.90;;;;;;6098528;23;20026;-83